Decoded Metar for KCGS (COLLEGE PARK in MD, USA) (IATA:CGS) | Meteo·Mobile Aviation Weather
aviador You're here:

KCGS Decoded Metar

COLLEGE PARK in MD, USA
Report Time2019-02-23 01:03:00
UTC Time2019-02-23 01:31:55
Flight Rules vfr VFR
WindCalm
Visibility9999 m
Phenomena:N/A
Clouds:N/A
Expected CloudBase > 2,000 ft AGL from Temp-Dew spread
CeilingNone
Temp05°C (ISA -10)
Dew Point00°C (70% RH)
AAT3.0°C
QNH1031 hPa
Density Alt-1,673 ft
Elevation49 ft
Report Wrong Elevation
Raw Report
KCGS 230103Z AUTO 00000KT 10SM CLR 05/00 A3045 RMK AO1
T00450003=

Extra information for KCGS:More info

Metar Taf Metar & Taf Last 4 Metars F.Rules Stats Wind Profile Meteogram Temp Stats Airport Information Weather charts Add Link Nearby VenuesMetar ALERT Operation Metar Decoded Social comments

AIRNAV info for KCGS